sensor_id;sensor_type;location;lat;lon;timestamp;pressure;altitude;pressure_sealevel;temperature;humidity
54900;BME280;40801;41.924;25.562;2024-03-08T00:01:47;99675.38;;;8.10;82.94
54900;BME280;40801;41.924;25.562;2024-03-08T00:04:13;99670.50;;;8.12;83.29
54900;BME280;40801;41.924;25.562;2024-03-08T00:06:38;99671.03;;;8.08;82.84
54900;BME280;40801;41.924;25.562;2024-03-08T00:09:05;99675.09;;;8.11;82.38
54900;BME280;40801;41.924;25.562;2024-03-08T00:11:33;99668.97;;;8.00;82.57
54900;BME280;40801;41.924;25.562;2024-03-08T00:13:58;99665.00;;;7.93;83.02
54900;BME280;40801;41.924;25.562;2024-03-08T00:16:24;99665.00;;;7.93;83.32
54900;BME280;40801;41.924;25.562;2024-03-08T00:18:49;99668.22;;;7.95;82.80
54900;BME280;40801;41.924;25.562;2024-03-08T00:21:15;99659.59;;;7.98;83.58
54900;BME280;40801;41.924;25.562;2024-03-08T00:23:40;99663.13;;;7.93;83.37
54900;BME280;40801;41.924;25.562;2024-03-08T00:26:06;99659.72;;;7.83;83.51
54900;BME280;40801;41.924;25.562;2024-03-08T00:28:32;99664.75;;;7.89;83.64
54900;BME280;40801;41.924;25.562;2024-03-08T00:30:59;99661.28;;;7.89;83.67
54900;BME280;40801;41.924;25.562;2024-03-08T00:33:25;99662.31;;;7.93;83.26
54900;BME280;40801;41.924;25.562;2024-03-08T00:35:51;99663.97;;;7.89;83.26
54900;BME280;40801;41.924;25.562;2024-03-08T00:38:16;99662.13;;;7.79;83.94
54900;BME280;40801;41.924;25.562;2024-03-08T00:40:43;99663.84;;;7.65;84.28
54900;BME280;40801;41.924;25.562;2024-03-08T00:43:09;99664.13;;;7.63;84.97
54900;BME280;40801;41.924;25.562;2024-03-08T00:45:34;99660.31;;;7.69;84.52
54900;BME280;40801;41.924;25.562;2024-03-08T00:47:59;99668.09;;;7.71;84.29
54900;BME280;40801;41.924;25.562;2024-03-08T00:50:25;99667.34;;;7.65;84.96
54900;BME280;40801;41.924;25.562;2024-03-08T00:52:50;99660.84;;;7.71;84.57
54900;BME280;40801;41.924;25.562;2024-03-08T00:55:16;99665.88;;;7.83;83.38
54900;BME280;40801;41.924;25.562;2024-03-08T00:57:42;99662.69;;;7.81;83.61
54900;BME280;40801;41.924;25.562;2024-03-08T01:00:07;99662.13;;;7.79;83.97
54900;BME280;40801;41.924;25.562;2024-03-08T01:02:37;99659.44;;;7.84;84.03
54900;BME280;40801;41.924;25.562;2024-03-08T01:05:03;99662.94;;;7.80;84.11
54900;BME280;40801;41.924;25.562;2024-03-08T01:07:31;99653.28;;;7.78;84.33
54900;BME280;40801;41.924;25.562;2024-03-08T01:09:56;99654.53;;;7.91;83.78
54900;BME280;40801;41.924;25.562;2024-03-08T01:12:22;99654.22;;;7.98;83.54
54900;BME280;40801;41.924;25.562;2024-03-08T01:14:48;99655.59;;;7.95;83.29
54900;BME280;40801;41.924;25.562;2024-03-08T01:17:13;99657.47;;;7.95;83.32
54900;BME280;40801;41.924;25.562;2024-03-08T01:19:38;99653.94;;;7.99;83.61
54900;BME280;40801;41.924;25.562;2024-03-08T01:22:04;99658.50;;;7.99;83.12
54900;BME280;40801;41.924;25.562;2024-03-08T01:24:29;99657.72;;;7.98;82.82
54900;BME280;40801;41.924;25.562;2024-03-08T01:26:55;99657.72;;;7.98;83.09
54900;BME280;40801;41.924;25.562;2024-03-08T01:29:20;99654.06;;;7.84;83.77
54900;BME280;40801;41.924;25.562;2024-03-08T01:31:45;99654.69;;;7.71;84.28
54900;BME280;40801;41.924;25.562;2024-03-08T01:34:11;99661.97;;;7.65;84.86
54900;BME280;40801;41.924;25.562;2024-03-08T01:36:36;99655.25;;;7.68;84.99
54900;BME280;40801;41.924;25.562;2024-03-08T01:39:02;99669.25;;;7.60;85.15
54900;BME280;40801;41.924;25.562;2024-03-08T01:41:36;99661.94;;;7.70;84.87
54900;BME280;40801;41.924;25.562;2024-03-08T01:44:02;99656.81;;;7.74;84.42
54900;BME280;40801;41.924;25.562;2024-03-08T01:46:28;99666.25;;;7.66;85.37
54900;BME280;40801;41.924;25.562;2024-03-08T01:48:54;99666.50;;;7.70;84.71
54900;BME280;40801;41.924;25.562;2024-03-08T01:51:20;99670.25;;;7.69;84.55
54900;BME280;40801;41.924;25.562;2024-03-08T01:53:47;99671.88;;;7.70;84.96
54900;BME280;40801;41.924;25.562;2024-03-08T01:56:13;99672.06;;;7.78;84.10
54900;BME280;40801;41.924;25.562;2024-03-08T01:58:41;99661.06;;;7.80;84.12
54900;BME280;40801;41.924;25.562;2024-03-08T02:01:12;99664.00;;;7.78;nan
54900;BME280;40801;41.924;25.562;2024-03-08T02:03:40;99664.81;;;7.84;84.50
54900;BME280;40801;41.924;25.562;2024-03-08T02:06:05;99666.97;;;7.82;84.45
54900;BME280;40801;41.924;25.562;2024-03-08T02:08:35;99666.41;;;7.80;85.55
54900;BME280;40801;41.924;25.562;2024-03-08T02:11:00;99659.22;;;7.75;83.97
54900;BME280;40801;41.924;25.562;2024-03-08T02:13:27;99664.53;;;7.86;83.74
54900;BME280;40801;41.924;25.562;2024-03-08T02:18:19;99673.72;;;7.74;84.46
54900;BME280;40801;41.924;25.562;2024-03-08T02:20:58;99659.44;;;7.79;83.73
54900;BME280;40801;41.924;25.562;2024-03-08T02:23:24;99664.81;;;7.79;84.61
54900;BME280;40801;41.924;25.562;2024-03-08T02:25:50;99667.78;;;7.83;84.57
54900;BME280;40801;41.924;25.562;2024-03-08T02:28:16;99672.63;;;7.75;84.25
54900;BME280;40801;41.924;25.562;2024-03-08T02:30:44;99660.47;;;7.88;83.30
54900;BME280;40801;41.924;25.562;2024-03-08T02:33:13;99660.06;;;7.71;83.72
54900;BME280;40801;41.924;25.562;2024-03-08T02:35:41;99670.31;;;7.64;84.49
54900;BME280;40801;41.924;25.562;2024-03-08T02:38:07;99659.81;;;7.67;85.18
54900;BME280;40801;41.924;25.562;2024-03-08T02:40:33;99674.00;;;7.73;85.05
54900;BME280;40801;41.924;25.562;2024-03-08T02:42:58;99663.22;;;7.78;84.29
54900;BME280;40801;41.924;25.562;2024-03-08T02:45:24;99662.13;;;7.79;84.03
54900;BME280;40801;41.924;25.562;2024-03-08T02:47:49;99661.88;;;7.81;84.23
54900;BME280;40801;41.924;25.562;2024-03-08T02:50:15;99666.47;;;7.75;84.45
54900;BME280;40801;41.924;25.562;2024-03-08T02:52:42;99655.75;;;7.70;84.54
54900;BME280;40801;41.924;25.562;2024-03-08T02:55:08;99659.00;;;7.67;85.31
54900;BME280;40801;41.924;25.562;2024-03-08T02:57:35;99660.66;;;7.63;85.43
54900;BME280;40801;41.924;25.562;2024-03-08T03:00:02;99662.22;;;7.69;85.14
54900;BME280;40801;41.924;25.562;2024-03-08T03:02:27;99662.41;;;7.77;85.15
54900;BME280;40801;41.924;25.562;2024-03-08T03:04:53;99661.13;;;7.70;85.40
54900;BME280;40801;41.924;25.562;2024-03-08T03:07:21;99662.41;;;7.77;85.81
54900;BME280;40801;41.924;25.562;2024-03-08T03:09:46;99661.34;;;7.78;85.06
54900;BME280;40801;41.924;25.562;2024-03-08T03:12:12;99663.47;;;7.82;85.27
54900;BME280;40801;41.924;25.562;2024-03-08T03:14:37;99664.66;;;7.65;85.63
54900;BME280;40801;41.924;25.562;2024-03-08T03:17:06;99659.56;;;7.64;86.07
54900;BME280;40801;41.924;25.562;2024-03-08T03:19:31;99657.94;;;7.68;85.78
54900;BME280;40801;41.924;25.562;2024-03-08T03:21:56;99662.97;;;7.74;85.29
54900;BME280;40801;41.924;25.562;2024-03-08T03:24:22;99666.16;;;7.82;85.39
54900;BME280;40801;41.924;25.562;2024-03-08T03:26:49;99660.25;;;7.85;85.10
54900;BME280;40801;41.924;25.562;2024-03-08T03:29:15;99669.91;;;7.86;85.84
54900;BME280;40801;41.924;25.562;2024-03-08T03:31:42;99664.00;;;7.84;85.28
54900;BME280;40801;41.924;25.562;2024-03-08T03:34:07;99669.66;;;7.82;86.02
54900;BME280;40801;41.924;25.562;2024-03-08T03:36:34;99658.88;;;7.87;85.90
54900;BME280;40801;41.924;25.562;2024-03-08T03:39:00;99671.56;;;7.76;85.86
54900;BME280;40801;41.924;25.562;2024-03-08T03:41:41;99669.66;;;7.82;85.58
54900;BME280;40801;41.924;25.562;2024-03-08T03:44:07;99668.56;;;7.83;85.59
54900;BME280;40801;41.924;25.562;2024-03-08T03:46:33;99671.53;;;7.82;86.13
54900;BME280;40801;41.924;25.562;2024-03-08T03:48:58;99673.38;;;7.86;85.64
54900;BME280;40801;41.924;25.562;2024-03-08T03:51:24;99675.59;;;7.74;86.11
54900;BME280;40801;41.924;25.562;2024-03-08T03:53:49;99677.16;;;7.80;85.97
54900;BME280;40801;41.924;25.562;2024-03-08T03:56:15;99681.72;;;7.80;86.38
54900;BME280;40801;41.924;25.562;2024-03-08T03:58:40;99683.59;;;7.79;86.13
54900;BME280;40801;41.924;25.562;2024-03-08T04:01:06;99674.28;;;7.71;85.88
54900;BME280;40801;41.924;25.562;2024-03-08T04:03:31;99682.03;;;7.73;86.05
54900;BME280;40801;41.924;25.562;2024-03-08T04:05:57;99692.03;;;7.67;86.43
54900;BME280;40801;41.924;25.562;2024-03-08T04:08:22;99689.34;;;7.67;85.40
54900;BME280;40801;41.924;25.562;2024-03-08T04:10:49;99685.03;;;7.66;85.91
54900;BME280;40801;41.924;25.562;2024-03-08T04:13:14;99687.97;;;7.70;85.23
54900;BME280;40801;41.924;25.562;2024-03-08T04:15:41;99691.97;;;7.72;85.58
54900;BME280;40801;41.924;25.562;2024-03-08T04:18:08;99690.66;;;7.70;85.22
54900;BME280;40801;41.924;25.562;2024-03-08T04:20:33;99694.19;;;7.65;85.34
54900;BME280;40801;41.924;25.562;2024-03-08T04:22:59;99692.59;;;7.59;86.00
54900;BME280;40801;41.924;25.562;2024-03-08T04:25:24;99698.75;;;7.65;85.09
54900;BME280;40801;41.924;25.562;2024-03-08T04:27:50;99695.25;;;7.64;85.11
54900;BME280;40801;41.924;25.562;2024-03-08T04:30:17;99696.66;;;7.52;86.10
54900;BME280;40801;41.924;25.562;2024-03-08T04:32:43;99696.13;;;7.55;85.77
54900;BME280;40801;41.924;25.562;2024-03-08T04:35:09;99703.91;;;7.51;85.34
54900;BME280;40801;41.924;25.562;2024-03-08T04:37:34;99702.28;;;7.55;84.91
54900;BME280;40801;41.924;25.562;2024-03-08T04:40:00;99703.06;;;7.61;84.36
54900;BME280;40801;41.924;25.562;2024-03-08T04:42:26;99701.50;;;7.50;85.40
54900;BME280;40801;41.924;25.562;2024-03-08T04:44:53;99707.16;;;7.48;85.77
54900;BME280;40801;41.924;25.562;2024-03-08T04:47:19;99706.34;;;7.47;85.45
54900;BME280;40801;41.924;25.562;2024-03-08T04:49:45;99714.38;;;7.47;85.04
54900;BME280;40801;41.924;25.562;2024-03-08T04:52:12;99717.44;;;7.21;85.87
54900;BME280;40801;41.924;25.562;2024-03-08T04:54:37;99714.19;;;7.34;85.58
54900;BME280;40801;41.924;25.562;2024-03-08T04:57:03;99721.41;;;7.38;85.57
54900;BME280;40801;41.924;25.562;2024-03-08T04:59:30;99721.13;;;7.40;85.54
54900;BME280;40801;41.924;25.562;2024-03-08T05:01:55;99717.69;;;7.34;85.88
54900;BME280;40801;41.924;25.562;2024-03-08T05:04:21;99723.28;;;7.43;85.30
54900;BME280;40801;41.924;25.562;2024-03-08T05:06:47;99725.72;;;7.34;84.89
54900;BME280;40801;41.924;25.562;2024-03-08T05:09:13;99734.34;;;7.31;84.51
54900;BME280;40801;41.924;25.562;2024-03-08T05:11:43;99730.81;;;7.36;84.99
54900;BME280;40801;41.924;25.562;2024-03-08T05:14:10;99731.38;;;7.33;84.60
54900;BME280;40801;41.924;25.562;2024-03-08T05:16:35;99738.31;;;7.39;84.34
54900;BME280;40801;41.924;25.562;2024-03-08T05:19:04;99742.34;;;7.36;85.18
54900;BME280;40801;41.924;25.562;2024-03-08T05:21:29;99743.97;;;7.32;85.11
54900;BME280;40801;41.924;25.562;2024-03-08T05:23:55;99742.38;;;7.31;84.83
54900;BME280;40801;41.924;25.562;2024-03-08T05:26:20;99754.94;;;7.41;84.49
54900;BME280;40801;41.924;25.562;2024-03-08T05:28:47;99757.59;;;7.46;84.65
54900;BME280;40801;41.924;25.562;2024-03-08T05:31:20;99763.78;;;7.41;84.56
54900;BME280;40801;41.924;25.562;2024-03-08T05:33:48;99763.00;;;7.36;84.54
54900;BME280;40801;41.924;25.562;2024-03-08T05:36:13;99757.91;;;7.39;84.66
54900;BME280;40801;41.924;25.562;2024-03-08T05:38:40;99758.44;;;7.36;83.68
54900;BME280;40801;41.924;25.562;2024-03-08T05:41:07;99765.38;;;7.47;83.73
54900;BME280;40801;41.924;25.562;2024-03-08T05:43:33;99763.78;;;7.41;84.10
54900;BME280;40801;41.924;25.562;2024-03-08T05:45:58;99768.06;;;7.47;83.09
54900;BME280;40801;41.924;25.562;2024-03-08T05:48:23;99766.44;;;7.52;83.60
54900;BME280;40801;41.924;25.562;2024-03-08T05:50:50;99774.22;;;7.53;83.28
54900;BME280;40801;41.924;25.562;2024-03-08T05:53:15;99774.75;;;7.55;83.26
54900;BME280;40801;41.924;25.562;2024-03-08T05:55:41;99781.72;;;7.56;83.47
54900;BME280;40801;41.924;25.562;2024-03-08T05:58:06;99782.00;;;7.55;82.43
54900;BME280;40801;41.924;25.562;2024-03-08T06:00:33;99783.59;;;7.61;83.24
54900;BME280;40801;41.924;25.562;2024-03-08T06:02:59;99789.19;;;7.64;83.09
54900;BME280;40801;41.924;25.562;2024-03-08T06:05:24;99790.03;;;7.60;82.23
54900;BME280;40801;41.924;25.562;2024-03-08T06:07:50;99792.19;;;7.58;82.39
54900;BME280;40801;41.924;25.562;2024-03-08T06:10:18;99794.06;;;7.57;82.33
54900;BME280;40801;41.924;25.562;2024-03-08T06:12:44;99802.13;;;7.57;82.09
54900;BME280;40801;41.924;25.562;2024-03-08T06:15:10;99797.81;;;7.51;82.12
54900;BME280;40801;41.924;25.562;2024-03-08T06:17:42;99797.56;;;7.47;82.70
54900;BME280;40801;41.924;25.562;2024-03-08T06:20:08;99799.94;;;7.64;81.87
54900;BME280;40801;41.924;25.562;2024-03-08T06:22:41;99804.22;;;7.65;81.99
54900;BME280;40801;41.924;25.562;2024-03-08T06:25:09;99806.59;;;7.72;81.43
54900;BME280;40801;41.924;25.562;2024-03-08T06:27:36;99808.19;;;7.83;81.01
54900;BME280;40801;41.924;25.562;2024-03-08T06:30:02;99818.94;;;7.78;81.31
54900;BME280;40801;41.924;25.562;2024-03-08T06:32:30;99820.81;;;7.77;81.27
54900;BME280;40801;41.924;25.562;2024-03-08T06:34:55;99829.13;;;7.76;81.16
54900;BME280;40801;41.924;25.562;2024-03-08T06:37:21;99821.09;;;7.76;81.17
54900;BME280;40801;41.924;25.562;2024-03-08T06:39:48;99828.59;;;7.79;80.51
54900;BME280;40801;41.924;25.562;2024-03-08T06:42:13;99831.00;;;7.86;80.76
54900;BME280;40801;41.924;25.562;2024-03-08T06:44:39;99836.91;;;7.83;80.20
54900;BME280;40801;41.924;25.562;2024-03-08T06:47:14;99833.97;;;7.74;80.82
54900;BME280;40801;41.924;25.562;2024-03-08T06:49:40;99842.00;;;7.79;80.36
54900;BME280;40801;41.924;25.562;2024-03-08T06:52:06;99835.59;;;7.75;80.75
54900;BME280;40801;41.924;25.562;2024-03-08T06:54:32;99840.16;;;7.74;80.29
54900;BME280;40801;41.924;25.562;2024-03-08T06:56:57;99844.16;;;7.82;80.40
54900;BME280;40801;41.924;25.562;2024-03-08T06:59:23;99841.78;;;7.70;81.10
54900;BME280;40801;41.924;25.562;2024-03-08T07:01:48;99846.84;;;7.82;80.39
54900;BME280;40801;41.924;25.562;2024-03-08T07:04:13;99846.31;;;7.85;80.73
54900;BME280;40801;41.924;25.562;2024-03-08T07:06:39;99851.09;;;7.93;79.91
54900;BME280;40801;41.924;25.562;2024-03-08T07:09:06;99846.59;;;7.84;79.82
54900;BME280;40801;41.924;25.562;2024-03-08T07:11:31;99852.72;;;7.89;80.30
54900;BME280;40801;41.924;25.562;2024-03-08T07:13:56;99848.63;;;8.02;79.07
54900;BME280;40801;41.924;25.562;2024-03-08T07:16:23;99861.53;;;8.00;79.27
54900;BME280;40801;41.924;25.562;2024-03-08T07:18:49;99856.72;;;7.97;79.17
54900;BME280;40801;41.924;25.562;2024-03-08T07:21:17;99856.25;;;7.85;79.41
54900;BME280;40801;41.924;25.562;2024-03-08T07:23:43;99856.19;;;7.95;78.94
54900;BME280;40801;41.924;25.562;2024-03-08T07:26:20;99853.28;;;7.86;79.32
54900;BME280;40801;41.924;25.562;2024-03-08T07:28:45;99850.88;;;7.85;78.66
54900;BME280;40801;41.924;25.562;2024-03-08T07:31:10;99856.19;;;7.95;79.29
54900;BME280;40801;41.924;25.562;2024-03-08T07:33:42;99861.53;;;8.00;78.71
54900;BME280;40801;41.924;25.562;2024-03-08T07:36:07;99855.09;;;8.01;79.21
54900;BME280;40801;41.924;25.562;2024-03-08T07:38:33;99861.22;;;8.06;78.83
54900;BME280;40801;41.924;25.562;2024-03-08T07:40:59;99864.53;;;7.88;79.00
54900;BME280;40801;41.924;25.562;2024-03-08T07:43:25;99864.25;;;7.95;79.62
54900;BME280;40801;41.924;25.562;2024-03-08T07:45:51;99858.81;;;8.05;79.06
54900;BME280;40801;41.924;25.562;2024-03-08T07:48:18;99864.19;;;8.10;78.84
54900;BME280;40801;41.924;25.562;2024-03-08T07:50:43;99859.84;;;8.19;78.40
54900;BME280;40801;41.924;25.562;2024-03-08T07:53:09;99857.66;;;8.21;78.16
54900;BME280;40801;41.924;25.562;2024-03-08T07:55:35;99866.53;;;8.22;77.77
54900;BME280;40801;41.924;25.562;2024-03-08T07:58:02;99862.16;;;8.36;78.13
54900;BME280;40801;41.924;25.562;2024-03-08T08:00:28;99862.97;;;8.31;77.99
54900;BME280;40801;41.924;25.562;2024-03-08T08:02:55;99870.75;;;8.38;77.59
54900;BME280;40801;41.924;25.562;2024-03-08T08:05:21;99868.63;;;8.35;77.29
54900;BME280;40801;41.924;25.562;2024-03-08T08:07:46;99870.00;;;8.27;77.14
54900;BME280;40801;41.924;25.562;2024-03-08T08:10:16;99871.31;;;8.35;76.46
54900;BME280;40801;41.924;25.562;2024-03-08T08:12:50;99877.50;;;8.35;76.95
54900;BME280;40801;41.924;25.562;2024-03-08T08:15:16;99874.00;;;8.35;77.83
54900;BME280;40801;41.924;25.562;2024-03-08T08:17:43;99879.66;;;8.33;77.65
54900;BME280;40801;41.924;25.562;2024-03-08T08:20:12;99876.69;;;8.35;77.41
54900;BME280;40801;41.924;25.562;2024-03-08T08:22:41;99875.56;;;8.46;77.12
54900;BME280;40801;41.924;25.562;2024-03-08T08:25:09;99882.81;;;8.46;77.08
54900;BME280;40801;41.924;25.562;2024-03-08T08:27:38;99886.31;;;8.46;77.19
54900;BME280;40801;41.924;25.562;2024-03-08T08:30:08;99880.38;;;8.49;77.54
54900;BME280;40801;41.924;25.562;2024-03-08T08:32:37;99886.28;;;8.51;77.20
54900;BME280;40801;41.924;25.562;2024-03-08T08:35:03;99884.44;;;8.47;76.76
54900;BME280;40801;41.924;25.562;2024-03-08T08:37:30;99884.31;;;8.62;77.06
54900;BME280;40801;41.924;25.562;2024-03-08T08:39:56;99893.25;;;8.52;76.77
54900;BME280;40801;41.924;25.562;2024-03-08T08:42:23;99896.69;;;8.63;76.97
54900;BME280;40801;41.924;25.562;2024-03-08T08:44:48;99896.16;;;8.61;77.33
54900;BME280;40801;41.924;25.562;2024-03-08T08:47:16;99905.03;;;8.61;76.48
54900;BME280;40801;41.924;25.562;2024-03-08T08:49:44;99901.03;;;8.54;76.14
54900;BME280;40801;41.924;25.562;2024-03-08T08:52:11;99908.31;;;8.53;76.88
54900;BME280;40801;41.924;25.562;2024-03-08T08:54:36;99908.88;;;8.50;76.59
54900;BME280;40801;41.924;25.562;2024-03-08T08:57:02;99902.66;;;8.55;77.58
54900;BME280;40801;41.924;25.562;2024-03-08T08:59:33;99904.47;;;8.64;77.24
54900;BME280;40801;41.924;25.562;2024-03-08T09:01:58;99899.88;;;8.65;77.62
54900;BME280;40801;41.924;25.562;2024-03-08T09:04:23;99906.31;;;8.74;77.30
54900;BME280;40801;41.924;25.562;2024-03-08T09:06:49;99902.13;;;8.92;76.72
54900;BME280;40801;41.924;25.562;2024-03-08T09:09:15;99906.91;;;9.00;77.15
54900;BME280;40801;41.924;25.562;2024-03-08T09:11:42;99908.47;;;9.06;76.40
54900;BME280;40801;41.924;25.562;2024-03-08T09:14:08;99907.69;;;9.06;75.78
54900;BME280;40801;41.924;25.562;2024-03-08T09:16:34;99909.53;;;9.10;75.91
54900;BME280;40801;41.924;25.562;2024-03-08T09:19:00;99904.72;;;9.07;76.12
54900;BME280;40801;41.924;25.562;2024-03-08T09:21:25;99907.22;;;8.98;75.90
54900;BME280;40801;41.924;25.562;2024-03-08T09:23:52;99907.72;;;9.00;76.01
54900;BME280;40801;41.924;25.562;2024-03-08T09:26:18;99909.31;;;9.02;76.08
54900;BME280;40801;41.924;25.562;2024-03-08T09:28:44;99914.19;;;8.99;76.21
54900;BME280;40801;41.924;25.562;2024-03-08T09:31:10;99913.66;;;8.97;76.55
54900;BME280;40801;41.924;25.562;2024-03-08T09:33:37;99914.16;;;9.05;75.63
54900;BME280;40801;41.924;25.562;2024-03-08T09:36:02;99919.63;;;8.89;76.70
54900;BME280;40801;41.924;25.562;2024-03-08T09:38:29;99916.06;;;8.99;76.43
54900;BME280;40801;41.924;25.562;2024-03-08T09:40:54;99920.00;;;9.12;75.91
54900;BME280;40801;41.924;25.562;2024-03-08T09:43:22;99914.72;;;9.02;76.75
54900;BME280;40801;41.924;25.562;2024-03-08T09:45:49;99918.88;;;9.18;76.52
54900;BME280;40801;41.924;25.562;2024-03-08T09:48:17;99918.28;;;9.26;76.63
54900;BME280;40801;41.924;25.562;2024-03-08T09:50:44;99914.50;;;9.27;76.21
54900;BME280;40801;41.924;25.562;2024-03-08T09:53:13;99919.59;;;9.28;76.34
54900;BME280;40801;41.924;25.562;2024-03-08T09:55:38;99906.09;;;9.34;76.04
54900;BME280;40801;41.924;25.562;2024-03-08T09:58:14;99906.91;;;9.34;76.40
54900;BME280;40801;41.924;25.562;2024-03-08T10:00:58;99900.47;;;9.59;76.16
54900;BME280;40801;41.924;25.562;2024-03-08T10:03:23;99903.97;;;9.83;75.84
54900;BME280;40801;41.924;25.562;2024-03-08T10:05:51;99897.88;;;9.97;74.82
54900;BME280;40801;41.924;25.562;2024-03-08T10:08:16;99891.13;;;9.99;73.95
54900;BME280;40801;41.924;25.562;2024-03-08T10:10:42;99902.03;;;10.08;73.51
54900;BME280;40801;41.924;25.562;2024-03-08T10:13:09;99902.19;;;10.21;73.43
54900;BME280;40801;41.924;25.562;2024-03-08T10:15:36;99905.53;;;10.08;73.12
54900;BME280;40801;41.924;25.562;2024-03-08T10:18:02;99892.72;;;10.00;73.22
54900;BME280;40801;41.924;25.562;2024-03-08T10:20:32;99904.59;;;9.99;73.00
54900;BME280;40801;41.924;25.562;2024-03-08T10:23:01;99900.63;;;9.68;74.11
54900;BME280;40801;41.924;25.562;2024-03-08T10:25:29;99896.78;;;9.98;74.14
54900;BME280;40801;41.924;25.562;2024-03-08T10:27:55;99897.06;;;10.20;72.56
54900;BME280;40801;41.924;25.562;2024-03-08T10:30:21;99896.50;;;10.23;71.63
54900;BME280;40801;41.924;25.562;2024-03-08T10:32:47;99895.81;;;10.55;71.75
54900;BME280;40801;41.924;25.562;2024-03-08T10:35:13;99896.00;;;10.59;71.43
54900;BME280;40801;41.924;25.562;2024-03-08T10:37:45;99895.88;;;10.50;71.29
54900;BME280;40801;41.924;25.562;2024-03-08T10:40:18;99899.50;;;10.59;69.69
54900;BME280;40801;41.924;25.562;2024-03-08T10:42:58;99901.56;;;10.48;69.85
54900;BME280;40801;41.924;25.562;2024-03-08T10:45:40;99890.13;;;10.57;69.02
54900;BME280;40801;41.924;25.562;2024-03-08T10:48:26;99890.25;;;10.65;70.14
54900;BME280;40801;41.924;25.562;2024-03-08T10:50:59;99891.41;;;10.40;70.58
54900;BME280;40801;41.924;25.562;2024-03-08T10:53:28;99901.50;;;10.53;70.31
54900;BME280;40801;41.924;25.562;2024-03-08T10:55:57;99884.72;;;10.57;69.81
54900;BME280;40801;41.924;25.562;2024-03-08T10:58:24;99885.13;;;10.82;70.38
54900;BME280;40801;41.924;25.562;2024-03-08T11:00:57;99879.34;;;11.08;69.85
54900;BME280;40801;41.924;25.562;2024-03-08T11:06:07;99876.56;;;11.27;67.74
54900;BME280;40801;41.924;25.562;2024-03-08T11:08:36;99876.88;;;11.25;67.66
54900;BME280;40801;41.924;25.562;2024-03-08T11:11:02;99876.47;;;11.18;67.70
54900;BME280;40801;41.924;25.562;2024-03-08T11:15:59;99864.75;;;11.09;67.36
54900;BME280;40801;41.924;25.562;2024-03-08T11:18:26;99873.06;;;11.12;67.46
54900;BME280;40801;41.924;25.562;2024-03-08T11:20:55;99870.44;;;11.07;67.36
54900;BME280;40801;41.924;25.562;2024-03-08T11:23:23;99880.53;;;10.83;67.69
54900;BME280;40801;41.924;25.562;2024-03-08T11:25:48;99871.22;;;10.75;67.33
54900;BME280;40801;41.924;25.562;2024-03-08T11:28:23;99865.63;;;10.72;67.63
54900;BME280;40801;41.924;25.562;2024-03-08T11:33:30;99870.78;;;10.68;67.80
54900;BME280;40801;41.924;25.562;2024-03-08T11:36:22;99868.78;;;10.41;67.53
54900;BME280;40801;41.924;25.562;2024-03-08T11:38:49;99874.22;;;10.55;68.27
54900;BME280;40801;41.924;25.562;2024-03-08T11:41:18;99873.63;;;10.58;68.30
54900;BME280;40801;41.924;25.562;2024-03-08T11:43:45;99870.84;;;10.63;67.92
54900;BME280;40801;41.924;25.562;2024-03-08T11:46:12;99869.34;;;10.76;67.79
54900;BME280;40801;41.924;25.562;2024-03-08T11:48:39;99874.78;;;10.90;67.84
54900;BME280;40801;41.924;25.562;2024-03-08T11:51:07;99870.53;;;11.02;67.58
54900;BME280;40801;41.924;25.562;2024-03-08T11:53:33;99865.19;;;10.97;66.69
54900;BME280;40801;41.924;25.562;2024-03-08T11:56:07;99876.38;;;11.23;65.86
54900;BME280;40801;41.924;25.562;2024-03-08T11:58:32;99872.97;;;11.17;66.16
54900;BME280;40801;41.924;25.562;2024-03-08T12:01:05;99867.97;;;11.25;65.77
54900;BME280;40801;41.924;25.562;2024-03-08T12:03:42;99867.09;;;11.29;66.18
54900;BME280;40801;41.924;25.562;2024-03-08T12:06:11;99872.09;;;11.36;66.01
54900;BME280;40801;41.924;25.562;2024-03-08T12:08:38;99868.09;;;11.47;66.03
54900;BME280;40801;41.924;25.562;2024-03-08T12:11:04;99864.63;;;11.60;64.68
54900;BME280;40801;41.924;25.562;2024-03-08T12:13:34;99872.53;;;11.70;64.23
54900;BME280;40801;41.924;25.562;2024-03-08T12:16:03;99872.34;;;11.67;64.33
54900;BME280;40801;41.924;25.562;2024-03-08T12:18:38;99875.25;;;11.57;63.75
54900;BME280;40801;41.924;25.562;2024-03-08T12:21:07;99873.34;;;11.57;63.27
54900;BME280;40801;41.924;25.562;2024-03-08T12:23:34;99878.44;;;11.59;63.53
54900;BME280;40801;41.924;25.562;2024-03-08T12:26:12;99870.41;;;11.54;63.17
54900;BME280;40801;41.924;25.562;2024-03-08T12:28:39;99871.25;;;11.22;62.56
54900;BME280;40801;41.924;25.562;2024-03-08T12:31:07;99868.19;;;11.28;64.02
54900;BME280;40801;41.924;25.562;2024-03-08T12:33:55;99869.28;;;11.27;63.91
54900;BME280;40801;41.924;25.562;2024-03-08T12:36:24;99868.53;;;11.08;64.88
54900;BME280;40801;41.924;25.562;2024-03-08T12:38:51;99869.66;;;11.21;65.07
54900;BME280;40801;41.924;25.562;2024-03-08T12:41:20;99866.16;;;11.20;64.66
54900;BME280;40801;41.924;25.562;2024-03-08T12:43:46;99866.88;;;10.93;65.30
54900;BME280;40801;41.924;25.562;2024-03-08T12:46:22;99867.53;;;11.04;65.54
54900;BME280;40801;41.924;25.562;2024-03-08T12:48:51;99866.66;;;11.08;65.68
54900;BME280;40801;41.924;25.562;2024-03-08T12:51:19;99866.56;;;10.81;65.67
54900;BME280;40801;41.924;25.562;2024-03-08T12:53:45;99862.66;;;10.87;65.88
54900;BME280;40801;41.924;25.562;2024-03-08T12:56:12;99865.16;;;10.83;65.78
54900;BME280;40801;41.924;25.562;2024-03-08T12:58:38;99860.56;;;10.84;65.82
54900;BME280;40801;41.924;25.562;2024-03-08T13:01:07;99869.94;;;10.73;65.93
54900;BME280;40801;41.924;25.562;2024-03-08T13:03:34;99870.66;;;10.78;66.68
54900;BME280;40801;41.924;25.562;2024-03-08T13:06:04;99863.88;;;10.95;66.29
54900;BME280;40801;41.924;25.562;2024-03-08T13:08:39;99869.00;;;10.96;66.01